Time;durP1;ratioP1;P1;durP2;ratioP2;P2;SDS_P1;SDS_P2;PMS_P1;PMS_P2;Temp;Humidity;BMP_temperature;BMP_pressure;BME280_temperature;BME280_humidity;BME280_pressure;Samples;Min_cycle;Max_cycle;Signal;HPM_P1;HPM_P2
2021/05/26 00:00:10;;;;;;;9.73;8.68;;;;;;;18.47;69.09;94805.91;2955686;40;20045;-82
2021/05/26 00:02:11;;;;;;;10.30;8.85;;;;;;;18.62;68.37;94806.50;2951054;40;20068;-82
2021/05/26 00:04:13;;;;;;;12.25;9.85;;;;;;;18.46;68.89;94801.66;2957721;40;20477;-81
2021/05/26 00:06:15;;;;;;;10.20;9.13;;;;;;;18.53;68.76;94797.94;2950025;40;20146;-82
2021/05/26 00:08:30;;;;;;;15.75;9.50;;;;;;;18.59;68.30;94802.44;2959725;40;20092;-83
2021/05/26 00:10:32;;;;;;;12.10;9.73;;;;;;;18.75;67.83;94797.72;2961242;40;20111;-81
2021/05/26 00:12:33;;;;;;;14.73;9.30;;;;;;;18.87;67.31;94804.06;2960136;40;20092;-80
2021/05/26 00:14:36;;;;;;;10.20;9.20;;;;;;;18.86;67.43;94805.06;2952879;40;20060;-83
2021/05/26 00:16:38;;;;;;;13.52;10.10;;;;;;;18.29;69.72;94817.97;2949189;40;20448;-70
2021/05/26 00:18:40;;;;;;;15.18;10.50;;;;;;;18.15;70.27;94803.06;2953958;40;20105;-82
2021/05/26 00:20:43;;;;;;;12.00;10.30;;;;;;;18.08;70.54;94807.53;2953949;40;20089;-81
2021/05/26 00:22:45;;;;;;;12.30;11.00;;;;;;;17.87;71.51;94808.53;2956070;40;20454;-82
2021/05/26 00:24:47;;;;;;;12.07;10.02;;;;;;;18.06;70.99;94801.63;2959411;40;20146;-81
2021/05/26 00:26:48;;;;;;;11.63;10.52;;;;;;;18.23;70.24;94808.16;2959505;40;20114;-82
2021/05/26 00:28:55;;;;;;;12.43;11.23;;;;;;;18.39;69.60;94814.88;2956927;40;20093;-82
2021/05/26 00:30:58;;;;;;;14.38;11.57;;;;;;;18.26;70.04;94818.34;2949941;40;20086;-83
2021/05/26 00:33:00;;;;;;;;;;;;;;;18.32;69.81;94820.19;2958041;40;20298;-81
2021/05/26 00:35:02;;;;;;;11.65;10.25;;;;;;;18.47;69.37;94816.53;2957407;40;19954;-82
2021/05/26 00:37:05;;;;;;;14.52;11.15;;;;;;;18.58;69.05;94807.94;2951534;40;20049;-81
2021/05/26 00:39:07;;;;;;;16.55;10.75;;;;;;;18.67;68.68;94809.38;2958394;40;20054;-81
2021/05/26 00:41:09;;;;;;;11.30;10.13;;;;;;;18.74;68.36;94807.50;2954270;40;20065;-82
2021/05/26 00:43:14;;;;;;;14.57;11.25;;;;;;;18.84;68.02;94817.72;2956597;40;20112;-82
2021/05/26 00:45:17;;;;;;;12.55;10.13;;;;;;;18.88;67.73;94820.78;2954008;40;20519;-83
2021/05/26 00:47:39;;;;;;;12.02;9.70;;;;;;;18.94;67.27;94812.81;2957460;40;20052;-83
2021/05/26 00:49:41;;;;;;;15.15;10.50;;;;;;;18.91;67.57;94812.44;2959013;40;20171;-80
2021/05/26 00:51:43;;;;;;;11.02;9.73;;;;;;;18.89;67.60;94815.28;2959954;40;20060;-80
2021/05/26 00:53:45;;;;;;;11.30;10.10;;;;;;;18.93;67.56;94816.50;2957566;40;20546;-83
2021/05/26 00:55:47;;;;;;;11.85;10.65;;;;;;;18.95;67.37;94817.09;2956765;40;20120;-82
2021/05/26 00:57:49;;;;;;;11.77;10.02;;;;;;;18.98;67.16;94821.19;2952399;40;20057;-82
2021/05/26 00:59:51;;;;;;;12.43;10.07;;;;;;;18.78;67.92;94823.88;2959390;40;20049;-80
2021/05/26 01:01:53;;;;;;;13.23;10.50;;;;;;;18.49;69.06;94830.41;2958951;40;20045;-82
2021/05/26 01:03:56;;;;;;;13.10;10.60;;;;;;;18.14;70.17;94827.94;2959792;40;20092;-82
2021/05/26 01:05:57;;;;;;;14.50;11.20;;;;;;;17.85;71.59;94829.13;2960242;40;20394;-83
2021/05/26 01:08:00;;;;;;;12.20;11.00;;;;;;;17.78;71.90;94823.78;2955346;40;20292;-83
2021/05/26 01:10:02;;;;;;;12.82;11.43;;;;;;;17.56;72.82;94825.75;2960361;40;20099;-81
2021/05/26 01:12:05;;;;;;;12.43;11.13;;;;;;;17.46;73.24;94835.91;2960758;40;20406;-81
2021/05/26 01:14:07;;;;;;;13.65;12.25;;;;;;;17.63;72.94;94831.88;2961329;40;20056;-84
2021/05/26 01:16:09;;;;;;;12.25;10.95;;;;;;;17.85;71.96;94835.22;2960363;40;20057;-81
2021/05/26 01:18:23;;;;;;;13.38;10.52;;;;;;;18.04;71.18;94825.69;2960894;40;20475;-82
2021/05/26 01:20:29;;;;;;;11.75;9.27;;;;;;;18.18;70.63;94831.81;2960504;40;20393;-82
2021/05/26 01:22:34;;;;;;;14.02;10.25;;;;;;;18.31;70.08;94844.28;2961622;40;20104;-81
2021/05/26 01:24:37;;;;;;;11.25;10.15;;;;;;;18.39;69.79;94833.44;2966786;40;20114;-81
2021/05/26 01:26:39;;;;;;;11.68;10.13;;;;;;;18.49;69.25;94833.06;2966911;40;20053;-81
2021/05/26 01:28:41;;;;;;;11.10;9.93;;;;;;;18.57;68.90;94838.16;2960725;40;20049;-82
2021/05/26 01:30:43;;;;;;;10.60;9.45;;;;;;;18.62;68.70;94830.38;2959016;40;20435;-82
2021/05/26 01:32:48;;;;;;;11.93;9.95;;;;;;;18.63;68.57;94826.72;2958274;40;20037;-81
2021/05/26 01:34:49;;;;;;;11.63;10.45;;;;;;;18.60;68.33;94827.94;2956043;40;20326;-81
2021/05/26 01:36:51;;;;;;;12.50;9.90;;;;;;;18.62;68.65;94838.34;2960203;40;20061;-80
2021/05/26 01:38:53;;;;;;;13.18;10.25;;;;;;;18.57;68.75;94833.66;2961295;40;20094;-78
2021/05/26 01:41:00;;;;;;;12.45;9.35;;;;;;;18.63;68.64;94827.53;2960392;40;20053;-80
2021/05/26 01:43:02;;;;;;;11.60;9.05;;;;;;;18.65;68.55;94835.28;2960557;40;20317;-81
2021/05/26 01:45:07;;;;;;;10.25;9.18;;;;;;;18.70;68.35;94826.72;2959718;40;20426;-80
2021/05/26 01:47:09;;;;;;;9.50;8.52;;;;;;;18.74;68.23;94822.63;2959486;40;20077;-81
2021/05/26 01:49:10;;;;;;;11.60;10.32;;;;;;;18.71;68.37;94825.69;2960472;40;20076;-79
2021/05/26 01:51:12;;;;;;;14.35;9.50;;;;;;;18.73;68.15;94827.09;2956118;40;20072;-81
2021/05/26 01:53:14;;;;;;;10.38;9.27;;;;;;;18.66;68.40;94828.16;2962056;40;20052;-80
2021/05/26 01:55:16;;;;;;;10.20;9.27;;;;;;;18.66;68.50;94825.50;2958845;40;20081;-81
2021/05/26 01:57:18;;;;;;;9.90;8.90;;;;;;;18.58;68.68;94818.56;2960207;40;20142;-81
2021/05/26 01:59:19;;;;;;;12.68;9.55;;;;;;;18.53;68.77;94832.44;2955889;40;20049;-80
2021/05/26 02:01:23;;;;;;;10.25;9.15;;;;;;;18.55;68.97;94830.38;2961009;40;20154;-80
2021/05/26 02:03:24;;;;;;;12.00;10.13;;;;;;;18.58;68.68;94831.81;2959354;40;20134;-82
2021/05/26 02:05:26;;;;;;;10.85;9.05;;;;;;;18.57;68.77;94827.53;2965754;40;20056;-80
2021/05/26 02:07:28;;;;;;;10.55;8.70;;;;;;;18.59;68.85;94817.53;2957308;40;20134;-83
2021/05/26 02:09:30;;;;;;;10.18;9.05;;;;;;;18.60;68.67;94819.16;2959988;40;20157;-81
2021/05/26 02:14:11;;;;;;;10.70;9.30;;;;;;;18.66;68.67;94821.00;2956203;40;20088;-81
2021/05/26 02:16:13;;;;;;;9.90;8.90;;;;;;;18.69;68.34;94819.75;2959503;40;20048;-80
2021/05/26 02:18:14;;;;;;;10.45;9.35;;;;;;;18.69;68.19;94820.59;2954345;40;20166;-80
2021/05/26 02:20:16;;;;;;;17.55;9.68;;;;;;;18.71;68.40;94820.38;2959971;40;20061;-82
2021/05/26 02:22:18;;;;;;;12.65;9.32;;;;;;;18.71;68.30;94825.69;2956205;40;20053;-79
2021/05/26 02:24:20;;;;;;;11.02;8.98;;;;;;;18.67;68.47;94822.63;2953625;40;20444;-82
2021/05/26 02:26:22;;;;;;;11.60;8.82;;;;;;;18.65;68.44;94824.69;2959189;40;20341;-81
2021/05/26 02:28:25;;;;;;;12.55;9.07;;;;;;;18.65;68.44;94818.53;2958668;40;20053;-81
2021/05/26 02:30:27;;;;;;;11.73;8.90;;;;;;;18.60;68.68;94819.16;2959385;40;20084;-80
2021/05/26 02:32:28;;;;;;;10.73;8.60;;;;;;;18.53;69.12;94827.13;2959035;40;20153;-82
2021/05/26 02:34:35;;;;;;;9.35;8.43;;;;;;;18.52;68.98;94822.84;2960338;40;20068;-82
2021/05/26 02:36:40;;;;;;;10.48;8.93;;;;;;;18.48;69.13;94828.78;2958684;40;20213;-69
2021/05/26 02:38:41;;;;;;;10.32;9.15;;;;;;;18.46;69.20;94821.03;2953224;40;20132;-69
2021/05/26 02:40:44;;;;;;;18.15;10.68;;;;;;;18.46;69.21;94833.47;2959013;40;20053;-69
2021/05/26 02:42:46;;;;;;;10.65;9.02;;;;;;;18.46;69.08;94830.81;2958791;40;20514;-70
2021/05/26 02:44:47;;;;;;;9.30;8.40;;;;;;;18.49;69.10;94828.56;2959357;40;20192;-69
2021/05/26 02:46:49;;;;;;;10.23;8.10;;;;;;;18.53;68.93;94837.75;2958044;40;20382;-69
2021/05/26 02:48:51;;;;;;;15.93;8.85;;;;;;;18.60;68.87;94833.22;2957014;40;20095;-71
2021/05/26 02:50:53;;;;;;;10.27;9.18;;;;;;;18.63;68.49;94838.16;2958297;40;20107;-71
2021/05/26 02:52:55;;;;;;;10.38;9.27;;;;;;;18.60;68.48;94848.34;2959255;40;20068;-70
2021/05/26 02:54:56;;;;;;;12.38;10.07;;;;;;;18.29;69.55;94852.44;2959216;40;20057;-70
2021/05/26 02:56:58;;;;;;;13.82;10.23;;;;;;;17.94;71.14;94849.94;2958844;40;20053;-70
2021/05/26 02:59:01;;;;;;;11.10;10.00;;;;;;;17.59;72.48;94863.28;2958571;40;20053;-71
2021/05/26 03:01:03;;;;;;;11.77;10.57;;;;;;;17.35;73.49;94863.75;2958332;40;20434;-73
2021/05/26 03:03:05;;;;;;;11.85;9.88;;;;;;;17.09;74.60;94867.09;2957579;40;20076;-70
2021/05/26 03:05:07;;;;;;;12.93;10.45;;;;;;;16.96;75.24;94867.84;2959214;40;20206;-70
2021/05/26 03:07:09;;;;;;;13.80;11.13;;;;;;;17.15;74.67;94875.06;2954660;40;20089;-70
2021/05/26 03:09:14;;;;;;;12.38;10.32;;;;;;;17.37;73.82;94873.13;2957969;40;20311;-72
2021/05/26 03:11:16;;;;;;;10.90;9.77;;;;;;;17.57;73.30;94872.41;2958876;40;20457;-71
2021/05/26 03:13:18;;;;;;;14.13;10.77;;;;;;;17.72;72.26;94886.31;2948851;40;20111;-70
2021/05/26 03:15:20;;;;;;;11.73;10.45;;;;;;;17.77;72.13;94885.75;2958883;40;20142;-71
2021/05/26 03:17:23;;;;;;;12.07;9.23;;;;;;;17.87;71.55;94895.97;2956673;40;20053;-70
2021/05/26 03:19:25;;;;;;;13.18;10.13;;;;;;;17.96;71.35;94898.28;2957114;40;20204;-70
2021/05/26 03:21:27;;;;;;;10.90;9.88;;;;;;;18.02;71.00;94893.97;2958268;40;20085;-69
2021/05/26 03:23:28;;;;;;;13.30;10.13;;;;;;;18.10;70.50;94895.66;2957842;40;20089;-71
2021/05/26 03:25:30;;;;;;;15.50;10.15;;;;;;;18.19;69.98;94899.72;2957642;40;20076;-81
2021/05/26 03:27:36;;;;;;;11.68;9.50;;;;;;;18.27;69.93;94901.38;2958511;40;20056;-81
2021/05/26 03:29:38;;;;;;;14.98;11.10;;;;;;;18.21;70.23;94908.31;2957469;40;20094;-83
2021/05/26 03:31:40;;;;;;;11.70;9.93;;;;;;;18.18;70.48;94914.03;2959551;40;20085;-81
2021/05/26 03:33:41;;;;;;;11.52;10.32;;;;;;;18.14;70.45;94915.44;2959874;40;20323;-81
2021/05/26 03:35:44;;;;;;;16.70;10.77;;;;;;;18.21;70.40;94908.31;2960148;40;20149;-80
2021/05/26 03:37:48;;;;;;;13.02;10.80;;;;;;;18.22;70.21;94909.94;2958976;40;20068;-81
2021/05/26 03:39:49;;;;;;;14.88;11.35;;;;;;;18.14;70.51;94910.13;2957956;40;20422;-83
2021/05/26 03:41:51;;;;;;;13.02;11.73;;;;;;;17.95;71.23;94914.38;2958842;40;20081;-81
2021/05/26 03:43:53;;;;;;;14.75;11.30;;;;;;;17.94;71.47;94920.66;2959765;40;20068;-82
2021/05/26 03:45:54;;;;;;;15.93;12.57;;;;;;;17.47;73.35;94932.91;2959683;40;20434;-83
2021/05/26 03:47:57;;;;;;;15.38;12.90;;;;;;;17.45;73.61;94930.44;2959555;40;20053;-84
2021/05/26 03:49:59;;;;;;;18.48;14.60;;;;;;;17.37;74.39;94941.19;2959691;40;20092;-81
2021/05/26 03:52:01;;;;;;;17.38;14.10;;;;;;;17.38;74.11;94935.69;2959195;40;20085;-81
2021/05/26 03:54:03;;;;;;;17.80;14.65;;;;;;;17.30;74.40;94938.50;2959797;40;20055;-85
2021/05/26 03:56:05;;;;;;;16.75;15.00;;;;;;;17.35;74.40;94933.41;2957551;40;20067;-83
2021/05/26 03:58:07;;;;;;;15.38;13.80;;;;;;;17.45;73.97;94934.91;2960150;40;20176;-81
2021/05/26 04:00:11;;;;;;;16.08;13.10;;;;;;;17.52;73.87;94936.56;2959979;40;20053;-82
2021/05/26 04:02:13;;;;;;;15.43;13.82;;;;;;;17.58;73.61;94940.28;2959658;40;20142;-81
2021/05/26 04:04:14;;;;;;;16.25;13.77;;;;;;;17.63;73.56;94943.16;2958970;40;20399;-82
2021/05/26 04:06:16;;;;;;;19.25;14.75;;;;;;;17.62;73.46;94941.53;2953758;40;20072;-84
2021/05/26 04:08:18;;;;;;;15.18;13.65;;;;;;;17.71;73.63;94939.53;2953959;40;20057;-83
2021/05/26 04:10:20;;;;;;;14.98;13.48;;;;;;;17.73;73.10;94937.50;2958258;40;20044;-83
2021/05/26 04:12:24;;;;;;;14.98;13.38;;;;;;;17.77;72.82;94946.69;2959957;40;20405;-83
2021/05/26 04:14:26;;;;;;;17.02;13.88;;;;;;;17.81;73.00;94943.44;2961172;40;20556;-82
2021/05/26 04:16:28;;;;;;;14.63;13.13;;;;;;;17.67;73.27;94951.53;2959699;40;20045;-82
2021/05/26 04:18:29;;;;;;;18.80;13.48;;;;;;;17.63;73.14;94947.63;2958714;40;20057;-85
2021/05/26 04:20:31;;;;;;;14.85;13.25;;;;;;;17.64;72.93;94949.25;2954730;40;20049;-83
2021/05/26 04:22:34;;;;;;;15.10;11.48;;;;;;;17.66;72.51;94950.72;2953779;40;20042;-84
2021/05/26 04:24:36;;;;;;;12.27;11.07;;;;;;;17.61;72.52;94948.63;2959737;40;20068;-84
2021/05/26 04:26:38;;;;;;;15.75;10.82;;;;;;;17.58;72.05;94950.88;2959497;40;20057;-85
2021/05/26 04:28:44;;;;;;;11.82;10.45;;;;;;;17.48;72.29;94963.66;2955516;40;20139;-83
2021/05/26 04:30:47;;;;;;;13.10;10.30;;;;;;;17.42;72.32;94951.19;2958628;40;20396;-84
2021/05/26 04:32:48;;;;;;;14.98;9.65;;;;;;;17.32;72.36;94951.53;2960747;40;20371;-83
2021/05/26 04:34:50;;;;;;;10.98;8.73;;;;;;;17.30;72.58;94966.81;2967097;40;20059;-82
2021/05/26 04:36:52;;;;;;;9.60;8.52;;;;;;;17.29;72.70;94962.50;2966717;40;20073;-81
2021/05/26 04:38:54;;;;;;;10.07;9.00;;;;;;;17.39;72.24;94968.28;2960256;40;20048;-82
2021/05/26 04:40:56;;;;;;;11.75;7.90;;;;;;;17.36;71.52;94969.50;2959139;40;20061;-84
2021/05/26 04:42:58;;;;;;;13.43;9.80;;;;;;;17.20;71.42;94981.19;2955806;40;20114;-83
2021/05/26 04:45:00;;;;;;;10.98;7.90;;;;;;;17.20;71.20;94975.88;2960028;40;20425;-86
2021/05/26 04:47:02;;;;;;;11.88;7.13;;;;;;;17.18;70.33;94985.84;2950780;40;20395;-83
2021/05/26 04:49:04;;;;;;;10.93;7.13;;;;;;;17.18;70.13;94982.41;2959860;40;20387;-84
2021/05/26 04:51:06;;;;;;;9.18;7.30;;;;;;;16.91;69.95;94981.41;2959988;40;20310;-83
2021/05/26 04:53:08;;;;;;;7.57;6.75;;;;;;;17.01;69.83;94986.34;2959251;40;20341;-82
2021/05/26 04:55:10;;;;;;;9.80;8.07;;;;;;;16.92;69.86;94988.31;2960177;40;20085;-84
2021/05/26 04:57:12;;;;;;;10.27;7.65;;;;;;;16.88;70.20;94997.63;2962426;40;20413;-85
2021/05/26 04:59:13;;;;;;;10.23;7.35;;;;;;;16.87;69.95;94991.53;2955521;40;20045;-80
2021/05/26 05:01:16;;;;;;;9.50;7.85;;;;;;;16.90;69.84;94996.44;2959664;40;20044;-82
2021/05/26 05:03:18;;;;;;;10.60;7.80;;;;;;;16.74;70.26;94996.69;2961708;40;20044;-83
2021/05/26 05:05:20;;;;;;;12.90;8.27;;;;;;;16.76;70.03;95000.78;2966709;40;20080;-85
2021/05/26 05:07:22;;;;;;;10.45;7.88;;;;;;;16.74;70.26;94996.69;2962022;40;20392;-83
2021/05/26 05:09:25;;;;;;;11.57;7.72;;;;;;;16.81;69.88;95008.16;2964977;40;20077;-83
2021/05/26 05:11:27;;;;;;;9.48;7.47;;;;;;;16.74;69.85;94997.50;2962328;40;20435;-84
2021/05/26 05:13:28;;;;;;;10.82;8.30;;;;;;;16.78;69.84;94998.75;2960504;40;20061;-82
2021/05/26 05:15:31;;;;;;;9.68;7.35;;;;;;;16.76;69.51;95008.72;2960549;40;20048;-83
2021/05/26 05:17:33;;;;;;;8.93;7.07;;;;;;;16.75;69.39;95004.41;2958826;40;20201;-85
2021/05/26 05:19:34;;;;;;;12.77;7.40;;;;;;;16.60;69.51;94998.38;2960193;40;20313;-85
2021/05/26 05:21:36;;;;;;;9.13;6.90;;;;;;;16.67;69.18;94991.34;2961076;40;20152;-82
2021/05/26 05:23:38;;;;;;;10.48;7.53;;;;;;;16.75;68.93;94993.81;2961024;40;20108;-83
2021/05/26 05:25:40;;;;;;;9.32;7.22;;;;;;;16.77;68.86;95001.59;2960925;40;20354;-86
2021/05/26 05:27:42;;;;;;;10.85;7.85;;;;;;;16.79;68.48;94997.72;2961480;40;20362;-84
2021/05/26 05:29:43;;;;;;;13.02;7.47;;;;;;;16.74;68.33;95000.13;2958619;40;20358;-83
2021/05/26 05:31:45;;;;;;;10.90;7.15;;;;;;;16.69;68.01;94999.91;2961178;40;20395;-83
2021/05/26 05:33:47;;;;;;;11.50;6.70;;;;;;;16.71;67.68;95000.53;2961851;40;20147;-83
2021/05/26 05:35:48;;;;;;;9.85;6.47;;;;;;;16.68;67.56;95008.81;2961997;40;20145;-84
2021/05/26 05:37:50;;;;;;;7.63;5.97;;;;;;;16.65;67.65;95009.22;2961963;40;20096;-84
2021/05/26 05:39:52;;;;;;;10.32;7.15;;;;;;;16.66;67.49;95010.03;2948621;40;20049;-83
2021/05/26 05:41:54;;;;;;;9.40;6.57;;;;;;;16.72;67.51;95007.44;2964832;40;20045;-83
2021/05/26 05:43:56;;;;;;;12.27;6.22;;;;;;;16.68;67.05;95011.47;2963112;40;20045;-83
2021/05/26 05:45:58;;;;;;;10.90;5.88;;;;;;;16.66;67.36;95012.69;2960322;40;20450;-82
2021/05/26 05:48:00;;;;;;;8.95;7.70;;;;;;;16.45;67.83;95009.00;2954921;40;20150;-83
2021/05/26 05:50:03;;;;;;;7.55;5.82;;;;;;;16.51;67.39;95013.53;2959564;40;20057;-81
2021/05/26 05:52:08;;;;;;;8.20;6.25;;;;;;;16.37;67.49;95009.13;2963826;40;20065;-82
2021/05/26 05:54:10;;;;;;;9.68;6.05;;;;;;;16.46;67.32;95005.38;2962124;40;20061;-83
2021/05/26 05:56:11;;;;;;;8.38;5.97;;;;;;;16.52;67.16;95009.91;2963337;40;20112;-80
2021/05/26 05:58:22;;;;;;;7.30;5.47;;;;;;;16.37;66.66;95017.06;2963294;40;20368;-83
2021/05/26 06:00:23;;;;;;;11.18;6.22;;;;;;;16.34;66.93;95012.94;2960869;40;20138;-84
2021/05/26 06:02:25;;;;;;;7.65;5.63;;;;;;;16.29;67.08;95003.97;2958774;40;20053;-82
2021/05/26 06:04:27;;;;;;;12.70;5.47;;;;;;;16.31;66.80;95007.25;2960197;40;20053;-83
2021/05/26 06:06:29;;;;;;;10.02;5.60;;;;;;;16.30;66.98;95013.50;2960144;40;20457;-83
2021/05/26 06:08:30;;;;;;;7.55;5.53;;;;;;;16.00;67.95;95007.47;2959619;40;20125;-83
2021/05/26 06:10:33;;;;;;;6.73;5.30;;;;;;;16.22;67.23;95008.34;2959557;40;20519;-85
2021/05/26 06:12:35;;;;;;;6.70;5.20;;;;;;;16.31;66.67;95004.59;2960475;40;20295;-81
2021/05/26 06:14:38;;;;;;;15.80;6.45;;;;;;;16.20;67.28;95016.47;2954589;40;20065;-82
2021/05/26 06:16:40;;;;;;;8.18;5.53;;;;;;;15.96;67.54;95015.78;2959223;40;20153;-83
2021/05/26 06:18:42;;;;;;;8.95;5.93;;;;;;;16.17;67.34;95022.13;2960583;40;20056;-82
2021/05/26 06:20:44;;;;;;;9.77;5.93;;;;;;;16.20;66.99;95011.19;2959726;40;20057;-82
2021/05/26 06:22:45;;;;;;;6.97;5.15;;;;;;;16.18;66.73;95015.84;2958757;40;20090;-83
2021/05/26 06:24:47;;;;;;;8.00;5.30;;;;;;;16.23;66.79;95033.78;2960082;40;20132;-83
2021/05/26 06:26:49;;;;;;;8.30;4.80;;;;;;;16.24;66.22;95017.75;2957796;40;20187;-82
2021/05/26 06:28:52;;;;;;;5.78;4.65;;;;;;;16.20;66.21;95016.47;2951911;40;20057;-81
2021/05/26 06:30:57;;;;;;;6.72;4.72;;;;;;;16.20;66.22;95018.28;2952061;40;20587;-83
2021/05/26 06:32:59;;;;;;;10.05;5.25;;;;;;;16.12;66.31;95024.50;2959518;40;20053;-83
2021/05/26 06:35:01;;;;;;;6.78;4.60;;;;;;;16.20;66.31;95024.41;2960304;40;20052;-83
2021/05/26 06:37:04;;;;;;;7.72;4.82;;;;;;;16.26;65.95;95021.03;2960802;40;20080;-82
2021/05/26 06:39:06;;;;;;;7.97;4.33;;;;;;;16.24;65.61;95019.53;2959820;40;20102;-83
2021/05/26 06:41:09;;;;;;;5.30;4.32;;;;;;;16.31;65.30;95017.81;2961351;40;20323;-81
2021/05/26 06:43:10;;;;;;;6.47;4.43;;;;;;;16.46;65.30;95017.78;2961688;40;20052;-82
2021/05/26 06:45:13;;;;;;;6.72;4.65;;;;;;;16.51;64.88;95016.19;2960214;40;20044;-80
2021/05/26 06:47:15;;;;;;;7.18;4.55;;;;;;;16.63;64.73;95005.94;2959225;40;20103;-83
2021/05/26 06:49:16;;;;;;;5.95;4.00;;;;;;;16.64;64.59;95004.91;2959762;40;20053;-84
2021/05/26 06:51:18;;;;;;;7.35;4.78;;;;;;;16.69;64.28;95005.19;2960298;40;20105;-81
2021/05/26 06:53:20;;;;;;;6.45;4.30;;;;;;;16.81;63.79;95002.88;2955359;40;20061;-83
2021/05/26 06:55:22;;;;;;;7.65;4.35;;;;;;;16.88;63.41;95000.28;2958203;40;20494;-83
2021/05/26 06:57:23;;;;;;;6.32;3.97;;;;;;;16.86;63.25;95008.41;2952174;40;20165;-85
2021/05/26 06:59:25;;;;;;;9.60;4.57;;;;;;;16.91;63.32;94997.28;2954099;40;20045;-83
2021/05/26 07:01:27;;;;;;;7.90;4.28;;;;;;;17.02;63.15;94999.38;2960226;40;20376;-84
2021/05/26 07:03:28;;;;;;;5.20;4.00;;;;;;;16.99;62.93;95002.41;2963358;40;20048;-85
2021/05/26 07:05:31;;;;;;;6.55;4.55;;;;;;;17.03;62.65;94994.91;2962551;40;20048;-82
2021/05/26 07:07:32;;;;;;;6.38;4.68;;;;;;;16.98;62.61;94998.94;2957300;40;20053;-82
2021/05/26 07:09:34;;;;;;;5.50;3.58;;;;;;;16.91;62.93;94998.09;2960911;40;20075;-82
2021/05/26 07:11:36;;;;;;;7.03;3.80;;;;;;;17.04;62.83;94997.38;2963422;40;20575;-84
2021/05/26 07:13:39;;;;;;;7.78;4.10;;;;;;;17.13;62.33;94990.09;2961878;40;20149;-84
2021/05/26 07:15:40;;;;;;;9.10;4.25;;;;;;;17.13;62.39;94990.91;2960612;40;20057;-82
2021/05/26 07:17:42;;;;;;;5.47;3.90;;;;;;;17.13;62.40;94990.91;2965543;40;20425;-83
2021/05/26 07:19:44;;;;;;;5.45;3.92;;;;;;;17.23;62.18;94990.59;2963364;40;20069;-84
2021/05/26 07:21:46;;;;;;;6.15;3.97;;;;;;;17.30;61.60;94991.44;2955319;40;20094;-82
2021/05/26 07:23:47;;;;;;;7.60;3.72;;;;;;;17.35;61.55;94994.31;2961542;40;20129;-82
2021/05/26 07:25:50;;;;;;;7.10;3.63;;;;;;;17.26;61.71;94987.56;2960958;40;20382;-84
2021/05/26 07:27:52;;;;;;;6.53;3.92;;;;;;;17.25;61.95;94993.03;2961776;40;20135;-84
2021/05/26 07:29:53;;;;;;;6.82;3.60;;;;;;;17.25;61.85;94983.28;2962223;40;20097;-84
2021/05/26 07:31:55;;;;;;;5.85;3.70;;;;;;;17.42;61.60;94970.53;2962378;40;20064;-82
2021/05/26 07:33:58;;;;;;;8.38;3.95;;;;;;;17.51;61.30;94993.22;2960901;40;20065;-82
2021/05/26 07:36:00;;;;;;;13.50;4.78;;;;;;;17.70;61.18;94988.22;2960392;40;20134;-83
2021/05/26 07:38:12;;;;;;;7.45;4.75;;;;;;;17.84;60.83;94986.50;2959465;40;20142;-83
2021/05/26 07:40:15;;;;;;;7.07;4.50;;;;;;;17.87;60.55;94981.59;2951605;40;20465;-84
2021/05/26 07:42:17;;;;;;;9.75;5.05;;;;;;;17.69;61.05;94978.66;2959777;40;20288;-85
2021/05/26 07:44:19;;;;;;;9.32;5.85;;;;;;;17.45;61.84;94990.53;2956087;40;20053;-84
2021/05/26 07:46:20;;;;;;;7.47;4.75;;;;;;;17.47;62.19;94985.88;2960125;40;20385;-82
2021/05/26 07:48:22;;;;;;;6.65;3.63;;;;;;;17.65;61.74;94988.81;2959388;40;20064;-83
2021/05/26 07:50:24;;;;;;;5.60;4.20;;;;;;;17.65;61.55;94993.28;2961539;40;20045;-84
2021/05/26 07:52:28;;;;;;;4.80;3.80;;;;;;;17.70;61.34;94982.91;2960687;40;20069;-83
2021/05/26 07:54:30;;;;;;;;;;;;;;;17.68;61.48;94982.28;2958161;40;20122;-72
2021/05/26 07:56:32;;;;;;;6.95;4.55;;;;;;;17.64;61.66;94976.59;2954582;40;19944;-70
2021/05/26 07:58:33;;;;;;;4.13;3.28;;;;;;;17.68;61.11;94971.69;2956040;40;20145;-72
2021/05/26 08:00:36;;;;;;;8.17;3.93;;;;;;;17.82;61.04;94970.78;2956807;40;20149;-70
2021/05/26 08:02:38;;;;;;;5.78;3.88;;;;;;;17.93;60.64;94975.50;2956420;40;20056;-71
2021/05/26 08:04:41;;;;;;;6.38;4.07;;;;;;;18.01;60.27;94977.19;2957686;40;20048;-72
2021/05/26 08:06:43;;;;;;;4.88;3.75;;;;;;;17.97;60.55;94968.00;2958008;40;20126;-71
2021/05/26 08:08:45;;;;;;;6.18;4.20;;;;;;;18.05;60.03;94975.78;2957697;40;20107;-71
2021/05/26 08:10:46;;;;;;;5.22;4.00;;;;;;;18.14;60.18;94974.56;2957066;40;20100;-71
2021/05/26 08:12:48;;;;;;;8.68;5.00;;;;;;;18.24;59.76;94971.56;2958273;40;20080;-71
2021/05/26 08:14:50;;;;;;;6.78;4.43;;;;;;;18.34;59.63;94971.97;2962079;40;20362;-82
2021/05/26 08:16:52;;;;;;;4.40;3.42;;;;;;;18.32;59.85;94967.88;2961531;40;20081;-84
2021/05/26 08:18:54;;;;;;;6.25;3.85;;;;;;;18.47;59.65;94967.72;2963069;40;20056;-85
2021/05/26 08:20:55;;;;;;;5.45;3.95;;;;;;;18.49;59.11;94963.84;2956236;40;20465;-84
2021/05/26 08:22:57;;;;;;;4.97;4.22;;;;;;;18.50;59.45;94964.66;2956948;40;20096;-83
2021/05/26 08:24:59;;;;;;;5.40;3.67;;;;;;;18.62;59.13;94958.56;2954627;40;20073;-84
2021/05/26 08:27:01;;;;;;;9.40;4.95;;;;;;;18.42;59.50;94950.56;2959793;40;20106;-83
2021/05/26 08:29:04;;;;;;;7.90;4.82;;;;;;;18.09;60.22;94955.81;2956003;40;20138;-73
2021/05/26 08:31:05;;;;;;;6.13;4.13;;;;;;;18.37;59.73;94950.38;2952671;40;20166;-70
2021/05/26 08:33:07;;;;;;;4.43;3.55;;;;;;;18.62;59.55;94953.25;2958959;40;20433;-72
2021/05/26 08:35:09;;;;;;;6.38;3.40;;;;;;;18.83;58.66;94956.78;2954744;40;20324;-71
2021/05/26 08:37:14;;;;;;;5.35;3.67;;;;;;;19.07;57.76;94952.69;2951286;40;20111;-71
2021/05/26 08:39:16;;;;;;;5.93;3.65;;;;;;;19.18;57.38;94953.91;2953216;40;20064;-71
2021/05/26 08:41:19;;;;;;;4.55;3.63;;;;;;;19.33;57.04;94953.66;2958101;40;20109;-71
2021/05/26 08:43:21;;;;;;;;;;;;;;;19.47;56.79;94949.97;2959985;40;20075;-72
2021/05/26 08:45:23;;;;;;;6.43;3.88;;;;;;;19.55;56.26;94947.09;2958339;40;19942;-73
2021/05/26 08:47:26;;;;;;;4.95;3.25;;;;;;;19.63;56.44;94941.53;2957131;40;20057;-71
2021/05/26 08:49:30;;;;;;;7.22;3.67;;;;;;;19.83;56.26;94944.19;2941868;40;20284;-71
2021/05/26 08:51:32;;;;;;;;;;;;;;;20.06;55.34;94948.16;2958961;40;20059;-72
2021/05/26 08:53:34;;;;;;;4.40;3.50;;;;;;;20.19;55.03;94945.41;2958459;40;19938;-69
2021/05/26 08:55:37;;;;;;;5.03;3.45;;;;;;;20.22;54.58;94947.69;2949963;40;20119;-72
2021/05/26 08:57:39;;;;;;;6.35;3.83;;;;;;;20.27;54.85;94943.56;2950408;40;20042;-73
2021/05/26 08:59:41;;;;;;;9.00;3.80;;;;;;;20.43;54.84;94949.19;2955457;40;20357;-72
2021/05/26 09:01:50;;;;;;;4.90;3.55;;;;;;;20.56;54.20;94942.13;2949103;40;20057;-75
2021/05/26 09:03:53;;;;;;;4.72;3.45;;;;;;;20.39;54.82;94937.34;2959108;40;20406;-71
2021/05/26 09:05:55;;;;;;;;;;;;;;;20.59;54.28;94941.75;2959290;40;20061;-72
2021/05/26 09:07:59;;;;;;;5.15;3.67;;;;;;;20.52;54.85;94940.94;2956544;40;20239;-72
2021/05/26 09:10:07;;;;;;;7.50;3.50;;;;;;;20.68;54.72;94940.47;2959602;40;20075;-71
2021/05/26 09:12:14;;;;;;;10.82;4.13;;;;;;;20.95;54.06;94934.91;2959196;40;20128;-71
2021/05/26 09:14:15;;;;;;;6.68;4.57;;;;;;;21.17;53.36;94930.03;2952079;40;20143;-72
2021/05/26 09:16:27;;;;;;;7.63;4.55;;;;;;;21.30;52.98;94931.75;2948755;40;20068;-72
2021/05/26 09:18:29;;;;;;;9.55;4.38;;;;;;;21.38;52.93;94936.78;2954702;40;20060;-72
2021/05/26 09:20:31;;;;;;;5.55;4.20;;;;;;;21.46;52.59;94931.19;2959349;40;20093;-74
2021/05/26 09:22:33;;;;;;;6.10;4.03;;;;;;;21.58;52.40;94924.09;2958927;40;20053;-72
2021/05/26 09:24:35;;;;;;;6.25;4.40;;;;;;;21.66;52.70;94917.66;2958411;40;20157;-70
2021/05/26 09:27:06;;;;;;;5.72;4.18;;;;;;;21.67;51.93;94922.75;2958507;40;20077;-72
2021/05/26 09:29:07;;;;;;;7.20;4.40;;;;;;;21.73;52.28;94920.25;2957935;40;20088;-71
2021/05/26 09:31:12;;;;;;;6.35;4.50;;;;;;;21.78;52.64;94907.88;2958098;40;20409;-73
2021/05/26 09:33:24;;;;;;;7.18;4.50;;;;;;;21.75;52.73;94912.84;2958112;40;20065;-71